createdAt,value
2022-11-14T00:03:06.716Z,10.70
2022-11-14T00:05:52.752Z,10.70
2022-11-14T00:08:38.354Z,10.70
2022-11-14T00:11:24.639Z,10.70
2022-11-14T00:14:11.442Z,10.70
2022-11-14T00:16:57.960Z,10.70
2022-11-14T00:19:43.487Z,10.60
2022-11-14T00:22:29.696Z,10.60
2022-11-14T00:25:15.284Z,10.60
2022-11-14T00:28:01.321Z,10.60
2022-11-14T00:30:48.721Z,10.60
2022-11-14T00:33:35.005Z,10.60
2022-11-14T00:36:20.580Z,10.60
2022-11-14T00:39:06.823Z,10.60
2022-11-14T00:41:52.581Z,10.60
2022-11-14T00:44:38.554Z,10.60
2022-11-14T00:47:24.284Z,10.60
2022-11-14T00:50:10.528Z,10.60
2022-11-14T00:52:56.313Z,10.60
2022-11-14T00:55:43.664Z,10.60
2022-11-14T00:58:29.578Z,10.60
2022-11-14T01:01:16.072Z,10.60
2022-11-14T01:04:02.125Z,10.60
2022-11-14T01:06:47.780Z,10.60
2022-11-14T01:09:33.703Z,10.60
2022-11-14T01:12:19.802Z,10.60
2022-11-14T01:15:06.092Z,10.70
2022-11-14T01:17:52.441Z,10.60
2022-11-14T01:20:41.802Z,10.70
2022-11-14T01:23:27.818Z,10.60
2022-11-14T01:26:14.669Z,10.60
2022-11-14T01:29:00.725Z,10.60
2022-11-14T01:31:46.506Z,10.60
2022-11-14T01:34:32.278Z,10.60
2022-11-14T01:37:18.749Z,10.60
2022-11-14T01:40:05.379Z,10.60
2022-11-14T01:43:19.011Z,10.50
2022-11-14T01:46:12.847Z,10.60
2022-11-14T01:49:05.115Z,10.50
2022-11-14T01:52:02.315Z,10.60
2022-11-14T01:54:51.673Z,10.50
2022-11-14T01:57:45.010Z,10.50
2022-11-14T02:00:30.532Z,10.50
2022-11-14T02:03:17.774Z,10.50
2022-11-14T02:06:04.726Z,10.50
2022-11-14T02:08:51.830Z,10.50
2022-11-14T02:11:42.219Z,10.50
2022-11-14T02:14:29.913Z,10.50
2022-11-14T02:17:33.210Z,10.50
2022-11-14T02:20:20.817Z,10.50
2022-11-14T02:23:06.529Z,10.40
2022-11-14T02:25:52.853Z,10.40
2022-11-14T02:28:38.408Z,10.40
2022-11-14T02:31:24.368Z,10.40
2022-11-14T02:34:10.284Z,10.40
2022-11-14T02:36:56.911Z,10.40
2022-11-14T02:39:42.312Z,10.40
2022-11-14T02:42:28.659Z,10.40
2022-11-14T02:45:14.603Z,10.40
2022-11-14T02:48:00.561Z,10.40
2022-11-14T02:50:50.504Z,10.40
2022-11-14T02:53:36.800Z,10.30
2022-11-14T02:56:22.210Z,10.30
2022-11-14T02:59:08.631Z,10.30
2022-11-14T03:01:54.691Z,10.30
2022-11-14T03:04:40.870Z,10.30
2022-11-14T03:07:26.501Z,10.30
2022-11-14T03:10:14.052Z,10.30
2022-11-14T03:12:59.912Z,10.30
2022-11-14T03:15:45.798Z,10.30
2022-11-14T03:18:31.818Z,10.30
2022-11-14T03:21:20.474Z,10.30
2022-11-14T03:24:06.571Z,10.30
2022-11-14T03:26:52.431Z,10.30
2022-11-14T03:29:37.983Z,10.30
2022-11-14T03:32:24.461Z,10.30
2022-11-14T03:35:10.975Z,10.30
2022-11-14T03:37:57.337Z,10.30
2022-11-14T03:40:43.241Z,10.20
2022-11-14T03:43:34.549Z,10.20
2022-11-14T03:46:20.386Z,10.30
2022-11-14T03:49:06.607Z,10.20
2022-11-14T03:51:52.673Z,10.20
2022-11-14T03:54:38.882Z,10.20
2022-11-14T03:57:24.880Z,10.20
2022-11-14T04:00:11.452Z,10.20
2022-11-14T04:02:58.080Z,10.20
2022-11-14T04:05:45.657Z,10.20
2022-11-14T04:08:32.264Z,10.20
2022-11-14T04:11:19.449Z,10.20
2022-11-14T04:14:05.466Z,10.20
2022-11-14T04:16:51.366Z,10.20
2022-11-14T04:19:37.170Z,10.20
2022-11-14T04:22:23.170Z,10.20
2022-11-14T04:25:09.878Z,10.30
2022-11-14T04:27:55.848Z,10.30
2022-11-14T04:30:41.452Z,10.20
2022-11-14T04:33:27.794Z,10.30
2022-11-14T04:36:13.395Z,10.30
2022-11-14T04:38:59.519Z,10.30
2022-11-14T04:41:45.689Z,10.30
2022-11-14T04:44:32.102Z,10.30
2022-11-14T04:47:17.509Z,10.30
2022-11-14T04:50:04.987Z,10.30
2022-11-14T04:52:54.148Z,10.30
2022-11-14T04:55:40.362Z,10.20
2022-11-14T04:58:26.598Z,10.20
2022-11-14T05:01:14.275Z,10.20
2022-11-14T05:04:00.123Z,10.20
2022-11-14T05:06:45.974Z,10.20
2022-11-14T05:09:31.909Z,10.20
2022-11-14T05:12:18.481Z,10.20
2022-11-14T05:15:04.466Z,10.20
2022-11-14T05:17:50.411Z,10.20
2022-11-14T05:20:35.800Z,10.20
2022-11-14T05:23:23.837Z,10.20
2022-11-14T05:26:12.555Z,10.20
2022-11-14T05:28:58.706Z,10.20
2022-11-14T05:31:44.635Z,10.20
2022-11-14T05:34:30.527Z,10.20
2022-11-14T05:37:16.098Z,10.20
2022-11-14T05:40:03.317Z,10.20
2022-11-14T05:42:56.071Z,10.20
2022-11-14T05:45:41.912Z,10.10
2022-11-14T05:48:28.560Z,10.10
2022-11-14T05:51:14.720Z,10.10
2022-11-14T05:54:00.685Z,10.10
2022-11-14T05:56:46.976Z,10.10
2022-11-14T05:59:32.771Z,10.10
2022-11-14T06:02:18.847Z,10.10
2022-11-14T06:05:05.308Z,10.10
2022-11-14T06:07:58.832Z,10.10
2022-11-14T06:10:44.614Z,10.20
2022-11-14T06:13:30.678Z,10.10
2022-11-14T06:16:19.477Z,10.10
2022-11-14T06:19:05.745Z,10.10
2022-11-14T06:21:51.556Z,10.10
2022-11-14T06:24:37.774Z,10.20
2022-11-14T06:27:23.917Z,10.10
2022-11-14T06:30:10.465Z,10.20
2022-11-14T06:32:59.407Z,10.10
2022-11-14T06:35:45.844Z,10.20
2022-11-14T06:38:33.064Z,10.20
2022-11-14T06:41:21.409Z,10.20
2022-11-14T06:44:09.008Z,10.20
2022-11-14T06:46:56.525Z,10.20
2022-11-14T06:49:41.958Z,10.20
2022-11-14T06:52:28.185Z,10.20
2022-11-14T06:55:14.440Z,10.20
2022-11-14T06:58:00.512Z,10.30
2022-11-14T07:00:46.494Z,10.30
2022-11-14T07:03:32.504Z,10.30
2022-11-14T07:06:24.718Z,10.30
2022-11-14T07:09:11.575Z,10.40
2022-11-14T07:11:57.512Z,10.40
2022-11-14T07:14:43.369Z,10.40
2022-11-14T07:17:31.362Z,10.40
2022-11-14T07:20:20.554Z,10.40
2022-11-14T07:23:05.964Z,10.40
2022-11-14T07:25:52.102Z,10.50
2022-11-14T07:28:42.548Z,10.50
2022-11-14T07:31:28.301Z,10.50
2022-11-14T07:34:14.123Z,10.50
2022-11-14T07:37:00.189Z,10.50
2022-11-14T07:39:46.258Z,10.50
2022-11-14T07:42:32.267Z,10.60
2022-11-14T07:45:20.049Z,10.60
2022-11-14T07:48:06.423Z,10.60
2022-11-14T07:50:51.815Z,10.60
2022-11-14T07:53:37.604Z,10.60
2022-11-14T07:56:24.125Z,10.60
2022-11-14T07:59:09.981Z,10.60
2022-11-14T08:01:56.039Z,10.60
2022-11-14T08:04:42.460Z,10.70
2022-11-14T08:07:27.938Z,10.70
2022-11-14T08:10:14.335Z,10.80
2022-11-14T08:13:30.346Z,10.80
2022-11-14T08:16:13.754Z,10.80
2022-11-14T08:18:59.991Z,10.80
2022-11-14T08:21:46.115Z,10.90
2022-11-14T08:24:31.771Z,10.90
2022-11-14T08:27:17.848Z,10.90
2022-11-14T08:30:04.235Z,10.90
2022-11-14T08:32:50.777Z,10.90
2022-11-14T08:35:36.935Z,10.90
2022-11-14T08:38:23.348Z,10.90
2022-11-14T08:41:09.112Z,10.90
2022-11-14T08:43:55.189Z,10.90
2022-11-14T08:46:41.012Z,10.90
2022-11-14T08:49:27.383Z,11.00
2022-11-14T08:52:16.710Z,11.00
2022-11-14T08:55:03.518Z,11.00
2022-11-14T08:57:49.928Z,11.00
2022-11-14T09:00:36.734Z,11.00
2022-11-14T09:03:22.986Z,11.00
2022-11-14T09:06:09.012Z,11.10
2022-11-14T09:08:54.868Z,11.10
2022-11-14T09:11:41.371Z,11.10
2022-11-14T09:14:26.937Z,11.20
2022-11-14T09:17:12.652Z,11.20
2022-11-14T09:19:58.367Z,11.30
2022-11-14T09:22:44.159Z,11.30
2022-11-14T09:25:31.063Z,11.40
2022-11-14T09:28:17.261Z,11.40
2022-11-14T09:31:04.405Z,11.30
2022-11-14T09:33:50.575Z,11.30
2022-11-14T09:36:36.345Z,11.30
2022-11-14T09:39:22.187Z,11.30
2022-11-14T09:42:34.848Z,11.40
2022-11-14T09:45:21.571Z,11.40
2022-11-14T09:48:13.554Z,11.40
2022-11-14T09:51:10.364Z,11.40
2022-11-14T09:54:14.170Z,11.30
2022-11-14T09:57:00.908Z,11.30
2022-11-14T09:59:46.798Z,11.30
2022-11-14T10:02:57.685Z,11.30
2022-11-14T10:05:46.421Z,11.30
2022-11-14T10:08:44.633Z,11.30
2022-11-14T10:11:39.381Z,11.30
2022-11-14T10:14:53.633Z,11.40
2022-11-14T10:18:17.163Z,11.50
2022-11-14T10:21:30.590Z,11.60
2022-11-14T10:24:48.848Z,11.70
2022-11-14T10:28:03.872Z,11.70
2022-11-14T10:31:05.362Z,11.70
2022-11-14T10:34:13.546Z,11.60
2022-11-14T10:37:29.689Z,11.60
2022-11-14T10:40:31.111Z,11.60
2022-11-14T10:43:34.370Z,11.60
2022-11-14T10:46:26.390Z,11.60
2022-11-14T10:49:23.228Z,11.50
2022-11-14T10:52:20.821Z,11.50
2022-11-14T10:55:17.778Z,11.50
2022-11-14T10:58:13.734Z,11.40
2022-11-14T11:01:32.091Z,11.30
2022-11-14T11:04:29.235Z,11.30
2022-11-14T11:08:02.919Z,11.30
2022-11-14T11:11:19.566Z,11.30
2022-11-14T11:14:06.279Z,11.30
2022-11-14T11:17:11.055Z,11.20
2022-11-14T11:20:28.268Z,11.20
2022-11-14T11:23:26.341Z,11.20
2022-11-14T11:26:20.080Z,11.20
2022-11-14T11:29:12.148Z,11.30
2022-11-14T11:31:59.383Z,11.30
2022-11-14T11:34:45.803Z,11.40
2022-11-14T11:37:41.172Z,11.30
2022-11-14T11:40:29.085Z,11.30
2022-11-14T11:43:39.597Z,11.30
2022-11-14T11:46:38.232Z,11.20
2022-11-14T11:49:30.240Z,11.10
2022-11-14T11:52:24.980Z,11.10
2022-11-14T11:55:26.401Z,11.00
2022-11-14T11:58:17.114Z,11.00
2022-11-14T12:01:02.960Z,11.00
2022-11-14T12:03:54.510Z,11.00
2022-11-14T12:06:48.312Z,10.90
2022-11-14T12:10:08.623Z,10.90
2022-11-14T12:12:45.504Z,10.80
2022-11-14T12:15:51.307Z,10.80
2022-11-14T12:19:10.263Z,10.80
2022-11-14T12:21:58.810Z,10.80
2022-11-14T12:24:54.303Z,10.80
2022-11-14T12:28:06.292Z,10.80
2022-11-14T12:30:57.872Z,10.70
2022-11-14T12:34:00.532Z,10.70
2022-11-14T12:36:46.553Z,10.70
2022-11-14T12:39:33.058Z,10.60
2022-11-14T12:42:21.621Z,10.60
2022-11-14T12:45:41.355Z,10.60
2022-11-14T12:48:27.390Z,10.60
2022-11-14T12:51:25.648Z,10.50
2022-11-14T12:54:49.326Z,10.50
2022-11-14T12:57:50.067Z,10.40
2022-11-14T13:01:08.260Z,10.40
2022-11-14T13:04:03.165Z,10.30
2022-11-14T13:07:29.927Z,10.30
2022-11-14T13:10:37.013Z,10.20
2022-11-14T13:13:41.928Z,10.20
2022-11-14T13:16:51.149Z,10.20
2022-11-14T13:20:05.370Z,10.20
2022-11-14T13:22:51.618Z,10.20
2022-11-14T13:25:37.634Z,10.10
2022-11-14T13:28:39.439Z,10.10
2022-11-14T13:31:43.390Z,10.10
2022-11-14T13:35:04.302Z,10.10
2022-11-14T13:38:05.083Z,10.10
2022-11-14T13:40:59.007Z,10.00
2022-11-14T13:44:19.902Z,10.00
2022-11-14T13:47:05.981Z,10.00
2022-11-14T13:50:08.444Z,10.00
2022-11-14T13:52:55.068Z,10.00
2022-11-14T13:55:59.940Z,9.90
2022-11-14T13:59:04.535Z,9.90
2022-11-14T14:02:25.204Z,9.90
2022-11-14T14:06:02.563Z,9.90
2022-11-14T14:08:57.135Z,9.80
2022-11-14T14:11:52.643Z,9.80
2022-11-14T14:14:52.685Z,9.70
2022-11-14T14:18:06.255Z,9.70
2022-11-14T14:21:00.596Z,9.70
2022-11-14T14:23:59.560Z,9.60
2022-11-14T14:26:55.693Z,9.60
2022-11-14T14:30:07.880Z,9.70
2022-11-14T14:33:23.104Z,9.60
2022-11-14T14:36:17.027Z,9.60
2022-11-14T14:39:21.880Z,9.60
2022-11-14T14:42:12.235Z,9.60
2022-11-14T14:44:58.538Z,9.60
2022-11-14T14:47:47.741Z,9.60
2022-11-14T14:50:33.259Z,9.50
2022-11-14T14:53:31.617Z,9.50
2022-11-14T14:56:22.514Z,9.50
2022-11-14T14:59:19.606Z,9.50
2022-11-14T15:02:16.726Z,9.50
2022-11-14T15:05:02.902Z,9.50
2022-11-14T15:07:50.621Z,9.50
2022-11-14T15:10:37.717Z,9.40
2022-11-14T15:13:25.285Z,9.40
2022-11-14T15:16:11.464Z,9.40
2022-11-14T15:18:58.828Z,9.50
2022-11-14T15:21:45.490Z,9.40
2022-11-14T15:24:32.150Z,9.50
2022-11-14T15:27:20.554Z,9.40
2022-11-14T15:30:19.826Z,9.40
2022-11-14T15:33:26.058Z,9.50
2022-11-14T15:36:20.163Z,9.40
2022-11-14T15:39:29.166Z,9.40
2022-11-14T15:42:27.020Z,9.40
2022-11-14T15:45:23.296Z,9.40
2022-11-14T15:48:16.474Z,9.40
2022-11-14T15:51:02.092Z,9.40
2022-11-14T15:53:49.620Z,9.40
2022-11-14T15:56:35.771Z,9.40
2022-11-14T15:59:22.079Z,9.40
2022-11-14T16:02:46.037Z,9.40
2022-11-14T16:05:33.174Z,9.40
2022-11-14T16:08:19.506Z,9.40
2022-11-14T16:11:05.322Z,9.40
2022-11-14T16:13:51.338Z,9.40
2022-11-14T16:16:37.311Z,9.40
2022-11-14T16:19:23.395Z,9.30
2022-11-14T16:22:13.344Z,9.40
2022-11-14T16:25:02.529Z,9.40
2022-11-14T16:27:48.070Z,9.40
2022-11-14T16:30:34.486Z,9.30
2022-11-14T16:33:20.352Z,9.30
2022-11-14T16:36:06.538Z,9.30
2022-11-14T16:38:52.620Z,9.30
2022-11-14T16:41:38.717Z,9.20
2022-11-14T16:44:24.907Z,9.20
2022-11-14T16:47:14.494Z,9.20
2022-11-14T16:50:01.468Z,9.20
2022-11-14T16:52:47.624Z,9.10
2022-11-14T16:55:33.475Z,9.10
2022-11-14T16:58:20.049Z,9.10
2022-11-14T17:01:11.608Z,9.00
2022-11-14T17:04:00.204Z,9.10
2022-11-14T17:06:46.103Z,9.00
2022-11-14T17:09:31.993Z,9.10
2022-11-14T17:12:17.733Z,9.10
2022-11-14T17:15:04.007Z,9.00
2022-11-14T17:17:50.303Z,9.10
2022-11-14T17:20:38.791Z,9.00
2022-11-14T17:23:24.198Z,9.00
2022-11-14T17:26:12.232Z,9.00
2022-11-14T17:28:58.156Z,9.00
2022-11-14T17:31:47.061Z,9.00
2022-11-14T17:34:33.217Z,9.00
2022-11-14T17:37:19.284Z,9.00
2022-11-14T17:40:06.858Z,9.00
2022-11-14T17:42:55.079Z,9.00
2022-11-14T17:45:41.453Z,9.00
2022-11-14T17:48:28.009Z,8.90
2022-11-14T17:51:15.008Z,9.00
2022-11-14T17:54:01.440Z,8.90
2022-11-14T17:56:52.286Z,9.00
2022-11-14T17:59:41.413Z,8.90
2022-11-14T18:02:27.286Z,8.90
2022-11-14T18:05:13.635Z,8.80
2022-11-14T18:07:59.620Z,8.90
2022-11-14T18:10:45.486Z,8.80
2022-11-14T18:13:31.292Z,8.80
2022-11-14T18:16:19.493Z,8.70
2022-11-14T18:19:05.507Z,8.70
2022-11-14T18:21:53.842Z,8.70
2022-11-14T18:24:43.394Z,8.70
2022-11-14T18:27:29.305Z,8.70
2022-11-14T18:30:39.732Z,8.60
2022-11-14T18:33:21.016Z,8.70
2022-11-14T18:36:11.383Z,8.70
2022-11-14T18:38:58.125Z,8.60
2022-11-14T18:41:44.038Z,8.60
2022-11-14T18:44:30.683Z,8.60
2022-11-14T18:47:16.533Z,8.60
2022-11-14T18:50:03.985Z,8.60
2022-11-14T18:52:49.551Z,8.50
2022-11-14T18:55:40.462Z,8.50
2022-11-14T18:58:26.425Z,8.50
2022-11-14T19:01:13.634Z,8.50
2022-11-14T19:04:04.474Z,8.40
2022-11-14T19:06:50.573Z,8.40
2022-11-14T19:09:36.256Z,8.40
2022-11-14T19:12:23.556Z,8.30
2022-11-14T19:15:11.181Z,8.30
2022-11-14T19:17:57.499Z,8.30
2022-11-14T19:20:43.293Z,8.30
2022-11-14T19:23:30.017Z,8.30
2022-11-14T19:26:16.762Z,8.30
2022-11-14T19:29:05.363Z,8.30
2022-11-14T19:31:51.189Z,8.30
2022-11-14T19:34:37.565Z,8.20
2022-11-14T19:37:23.238Z,8.20
2022-11-14T19:40:09.789Z,8.20
2022-11-14T19:43:00.253Z,8.20
2022-11-14T19:45:46.801Z,8.20
2022-11-14T19:48:33.914Z,8.10
2022-11-14T19:51:20.079Z,8.10
2022-11-14T19:54:06.100Z,8.10
2022-11-14T19:56:52.132Z,8.10
2022-11-14T19:59:37.593Z,8.10
2022-11-14T20:02:25.853Z,8.10
2022-11-14T20:05:11.678Z,8.10
2022-11-14T20:07:58.207Z,8.10
2022-11-14T20:10:49.585Z,8.10
2022-11-14T20:13:42.375Z,8.10
2022-11-14T20:16:30.902Z,8.10
2022-11-14T20:19:17.055Z,8.10
2022-11-14T20:22:03.117Z,8.10
2022-11-14T20:24:49.381Z,8.20
2022-11-14T20:27:35.353Z,8.10
2022-11-14T20:30:21.685Z,8.10
2022-11-14T20:33:08.832Z,8.20
2022-11-14T20:35:55.040Z,8.10
2022-11-14T20:38:40.891Z,8.10
2022-11-14T20:41:26.710Z,8.10
2022-11-14T20:44:12.423Z,8.10
2022-11-14T20:46:58.612Z,8.00
2022-11-14T20:49:45.116Z,8.00
2022-11-14T20:52:31.636Z,8.00
2022-11-14T20:55:17.577Z,8.00
2022-11-14T20:58:03.588Z,8.00
2022-11-14T21:00:50.596Z,8.00
2022-11-14T21:03:36.895Z,8.00
2022-11-14T21:06:22.404Z,8.00
2022-11-14T21:09:09.435Z,8.00
2022-11-14T21:11:55.445Z,8.00
2022-11-14T21:14:41.203Z,8.00
2022-11-14T21:17:26.992Z,8.00
2022-11-14T21:20:12.906Z,8.00
2022-11-14T21:22:58.797Z,7.90
2022-11-14T21:25:44.747Z,8.00
2022-11-14T21:28:32.298Z,8.00
2022-11-14T21:31:27.375Z,8.00
2022-11-14T21:34:18.101Z,8.00
2022-11-14T21:37:04.527Z,8.00
2022-11-14T21:39:50.534Z,7.90
2022-11-14T21:42:36.499Z,8.00
2022-11-14T21:45:22.275Z,7.90
2022-11-14T21:48:08.554Z,7.90
2022-11-14T21:50:54.113Z,7.90
2022-11-14T21:53:41.300Z,7.90
2022-11-14T21:56:29.062Z,7.90
2022-11-14T21:59:18.737Z,7.90
2022-11-14T22:02:23.274Z,7.90
2022-11-14T22:05:09.638Z,7.90
2022-11-14T22:07:55.341Z,7.90
2022-11-14T22:10:41.523Z,7.90
2022-11-14T22:13:30.553Z,7.80
2022-11-14T22:16:20.967Z,7.80
2022-11-14T22:19:06.896Z,7.90
2022-11-14T22:21:54.233Z,7.80
2022-11-14T22:24:40.462Z,7.80
2022-11-14T22:27:26.740Z,7.80
2022-11-14T22:30:12.961Z,7.80
2022-11-14T22:33:00.375Z,7.80
2022-11-14T22:35:45.808Z,7.80
2022-11-14T22:38:36.206Z,7.80
2022-11-14T22:41:29.148Z,7.80
2022-11-14T22:44:17.500Z,7.70
2022-11-14T22:47:03.112Z,7.70
2022-11-14T22:49:48.815Z,7.70
2022-11-14T22:52:34.535Z,7.70
2022-11-14T22:55:21.092Z,7.70
2022-11-14T22:58:07.019Z,7.70
2022-11-14T23:00:53.790Z,7.70
2022-11-14T23:03:40.672Z,7.70
2022-11-14T23:06:28.303Z,7.70
2022-11-14T23:09:14.195Z,7.70
2022-11-14T23:12:00.603Z,7.70
2022-11-14T23:14:46.285Z,7.60
2022-11-14T23:17:32.716Z,7.60
2022-11-14T23:20:18.757Z,7.50
2022-11-14T23:23:04.750Z,7.60
2022-11-14T23:25:50.728Z,7.60
2022-11-14T23:28:37.398Z,7.50
2022-11-14T23:31:24.066Z,7.50
2022-11-14T23:34:10.226Z,7.50
2022-11-14T23:36:56.075Z,7.50
2022-11-14T23:39:41.753Z,7.50
2022-11-14T23:42:27.537Z,7.50
2022-11-14T23:45:13.862Z,7.50
2022-11-14T23:47:59.474Z,7.50
2022-11-14T23:50:49.059Z,7.40
2022-11-14T23:53:34.835Z,7.50
2022-11-14T23:56:21.191Z,7.50
2022-11-14T23:59:06.946Z,7.50
